Time;durP1;ratioP1;P1;durP2;ratioP2;P2;SDS_P1;SDS_P2;PMS_P1;PMS_P2;Temp;Humidity;BMP_temperature;BMP_pressure;BME280_temperature;BME280_humidity;BME280_pressure;Samples;Min_cycle;Max_cycle;Signal;HPM_P1;HPM_P2
2022/06/30 06:31:45;;;;;;;5.55;2.83;;;19.70;99.90;;;;;;5039960;28;20098;-56
2022/06/30 06:34:10;;;;;;;11.38;2.45;;;19.70;99.90;;;;;;5058346;28;20032;-56
2022/06/30 06:36:36;;;;;;;7.85;2.55;;;19.90;99.90;;;;;;5058311;28;20029;-56
2022/06/30 06:39:03;;;;;;;5.18;2.40;;;19.60;99.90;;;;;;5061693;28;20036;-57
2022/06/30 06:41:28;;;;;;;8.13;2.45;;;19.20;99.90;;;;;;5056042;28;20028;-55
2022/06/30 06:43:54;;;;;;;5.75;2.33;;;19.20;99.90;;;;;;5055281;28;20508;-57
2022/06/30 06:46:26;;;;;;;5.38;1.77;;;20.10;99.90;;;;;;5046532;28;20098;-57
2022/06/30 06:48:53;;;;;;;5.15;2.20;;;21.70;99.90;;;;;;5053281;28;20473;-57
2022/06/30 06:51:18;;;;;;;16.42;3.30;;;22.50;99.90;;;;;;5050082;28;20039;-57
2022/06/30 06:53:44;;;;;;;8.93;2.33;;;21.50;99.90;;;;;;5056904;28;20036;-57
2022/06/30 06:56:10;;;;;;;4.93;2.08;;;20.90;99.90;;;;;;5052693;28;20513;-57
2022/06/30 06:58:36;;;;;;;5.88;1.95;;;20.30;99.90;;;;;;5048274;28;20469;-57
2022/06/30 07:01:01;;;;;;;7.70;2.10;;;20.00;99.90;;;;;;5053208;28;20424;-57
2022/06/30 07:03:29;;;;;;;5.85;2.22;;;19.70;99.90;;;;;;5048554;28;21417;-57
2022/06/30 07:05:55;;;;;;;8.48;2.17;;;19.80;99.90;;;;;;5054024;28;20028;-58
2022/06/30 07:08:21;;;;;;;4.78;2.30;;;19.50;99.90;;;;;;5050104;28;20058;-57
2022/06/30 07:10:46;;;;;;;7.28;2.55;;;19.40;99.90;;;;;;5049921;28;20033;-57
2022/06/30 07:13:12;;;;;;;5.15;2.30;;;19.20;99.90;;;;;;5046364;28;20037;-57
2022/06/30 07:15:37;;;;;;;3.65;2.03;;;19.10;99.90;;;;;;5051685;28;20029;-57
2022/06/30 07:18:03;;;;;;;6.30;2.50;;;19.00;99.90;;;;;;5047407;28;20052;-57
2022/06/30 07:20:29;;;;;;;3.88;2.03;;;18.80;99.90;;;;;;5050253;28;20745;-58
2022/06/30 07:22:55;;;;;;;12.57;2.60;;;18.80;99.90;;;;;;5052976;28;20025;-57
2022/06/30 07:25:20;;;;;;;4.88;2.20;;;19.10;99.90;;;;;;5050746;28;20058;-58
2022/06/30 07:27:46;;;;;;;5.82;1.70;;;19.50;99.90;;;;;;5053496;28;20078;-57
2022/06/30 07:30:12;;;;;;;4.53;1.55;;;19.80;99.90;;;;;;5062452;28;20031;-58
2022/06/30 07:32:38;;;;;;;6.68;1.60;;;20.10;99.90;;;;;;5060078;28;20025;-58
2022/06/30 07:35:05;;;;;;;4.13;1.80;;;20.60;99.90;;;;;;5055202;28;20416;-58
2022/06/30 07:37:30;;;;;;;4.18;1.50;;;20.70;99.90;;;;;;5059406;28;20078;-58
2022/06/30 07:39:56;;;;;;;4.50;1.60;;;20.90;99.90;;;;;;5056672;28;20585;-58
2022/06/30 07:42:22;;;;;;;3.58;1.50;;;21.30;99.90;;;;;;5058984;28;20047;-58
2022/06/30 07:44:47;;;;;;;4.80;1.60;;;21.00;99.90;;;;;;5058955;28;20169;-58
2022/06/30 07:47:13;;;;;;;4.45;1.60;;;20.40;99.90;;;;;;5057209;28;20074;-58
2022/06/30 07:49:40;;;;;;;5.03;1.75;;;20.20;99.90;;;;;;5060219;28;20115;-58
2022/06/30 07:52:06;;;;;;;3.50;1.52;;;20.20;99.90;;;;;;5057446;28;20043;-58
2022/06/30 07:54:32;;;;;;;3.42;1.63;;;20.50;99.90;;;;;;5053478;28;20498;-59
2022/06/30 07:56:58;;;;;;;6.07;1.85;;;20.30;99.90;;;;;;5059131;28;20037;-59
2022/06/30 07:59:24;;;;;;;5.93;1.58;;;20.30;99.90;;;;;;5056586;28;20435;-58
2022/06/30 08:01:49;;;;;;;5.93;1.65;;;20.20;99.90;;;;;;5056754;28;20036;-58
2022/06/30 08:04:17;;;;;;;4.03;1.60;;;19.80;99.90;;;;;;5058216;28;20036;-59
2022/06/30 08:06:43;;;;;;;4.20;1.65;;;19.80;99.90;;;;;;5059842;28;20036;-56
2022/06/30 08:09:08;;;;;;;6.85;1.77;;;19.90;99.90;;;;;;5061077;28;20033;-58
2022/06/30 08:11:34;;;;;;;5.53;1.50;;;20.10;99.90;;;;;;5055108;28;20032;-59
2022/06/30 08:14:00;;;;;;;7.07;1.42;;;20.50;99.90;;;;;;5045147;28;20028;-59
2022/06/30 08:16:25;;;;;;;7.22;1.60;;;20.70;99.90;;;;;;5054664;28;20040;-59
2022/06/30 08:18:51;;;;;;;4.68;1.65;;;20.60;99.90;;;;;;5060202;28;20037;-60
2022/06/30 08:21:17;;;;;;;4.05;1.77;;;20.00;99.90;;;;;;5061034;28;20028;-58
2022/06/30 08:23:42;;;;;;;5.22;1.58;;;19.80;99.90;;;;;;5062238;28;20028;-58
2022/06/30 08:26:08;;;;;;;10.40;1.95;;;19.80;99.90;;;;;;5067004;28;20041;-58
2022/06/30 08:28:34;;;;;;;5.63;1.60;;;20.00;99.90;;;;;;5058065;28;20469;-58
2022/06/30 08:31:03;;;;;;;4.15;1.45;;;20.40;99.90;;;;;;5052072;28;20132;-59
2022/06/30 08:33:29;;;;;;;5.60;1.65;;;20.80;99.90;;;;;;5059621;28;20089;-60
2022/06/30 08:35:54;;;;;;;5.93;1.67;;;21.10;99.90;;;;;;5047493;28;20408;-58
2022/06/30 08:38:25;;;;;;;11.05;1.88;;;21.00;99.90;;;;;;5048756;28;20464;-59
2022/06/30 08:43:35;;;;;;;5.88;1.88;;;20.90;99.90;;;;;;5053216;28;20556;-58
2022/06/30 08:46:02;;;;;;;5.05;2.30;;;20.20;99.90;;;;;;5051599;28;20033;-59
2022/06/30 08:48:29;;;;;;;4.85;2.13;;;19.80;99.90;;;;;;5051881;28;20075;-58
2022/06/30 08:51:05;;;;;;;5.40;2.35;;;19.50;99.90;;;;;;5050827;28;20104;-59
2022/06/30 08:53:37;;;;;;;8.13;2.15;;;19.50;99.90;;;;;;5051903;28;20120;-58
2022/06/30 08:56:04;;;;;;;14.23;2.50;;;19.50;99.90;;;;;;5053988;28;20154;-59
2022/06/30 08:58:30;;;;;;;6.03;2.30;;;19.70;99.90;;;;;;5045135;28;20041;-59
2022/06/30 09:00:56;;;;;;;8.10;2.53;;;19.50;99.90;;;;;;5053381;28;20047;-58
2022/06/30 09:03:21;;;;;;;8.70;2.65;;;19.60;99.90;;;;;;5059535;28;20029;-58
2022/06/30 09:05:47;;;;;;;7.50;2.78;;;20.00;99.90;;;;;;5051463;28;20353;-58
2022/06/30 09:08:14;;;;;;;7.85;2.35;;;19.90;99.90;;;;;;5059858;28;20021;-58
2022/06/30 09:10:51;;;;;;;7.50;2.50;;;20.00;99.90;;;;;;5061412;28;20029;-58
2022/06/30 09:13:17;;;;;;;9.52;3.20;;;20.20;99.90;;;;;;5050838;28;20021;-59
2022/06/30 09:15:43;;;;;;;6.95;3.17;;;19.80;99.90;;;;;;5056334;28;20039;-56
2022/06/30 09:18:21;;;;;;;7.53;2.92;;;19.20;99.90;;;;;;5060633;28;20397;-56
2022/06/30 09:20:46;;;;;;;8.13;3.00;;;19.00;99.90;;;;;;5053005;28;20103;-59
2022/06/30 09:23:22;;;;;;;8.55;2.80;;;18.90;99.90;;;;;;5064917;28;20171;-58
2022/06/30 09:25:49;;;;;;;5.85;2.75;;;18.70;99.90;;;;;;5063247;28;20024;-56
2022/06/30 09:28:36;;;;;;;7.85;3.03;;;18.40;99.90;;;;;;5056042;28;20060;-57
2022/06/30 09:31:01;;;;;;;8.90;2.80;;;18.30;99.90;;;;;;5053720;28;20094;-58
2022/06/30 09:33:34;;;;;;;11.43;3.10;;;18.40;99.90;;;;;;5064687;28;20025;-59
2022/06/30 09:36:18;;;;;;;12.90;3.15;;;18.50;99.90;;;;;;5054891;28;20021;-59
2022/06/30 09:39:05;;;;;;;7.38;3.20;;;18.60;99.90;;;;;;5059470;28;20040;-56
2022/06/30 09:41:35;;;;;;;7.68;2.80;;;18.40;99.90;;;;;;5065078;28;20107;-56
2022/06/30 09:44:04;;;;;;;6.70;2.65;;;18.50;99.90;;;;;;5056774;28;20424;-57
2022/06/30 09:46:30;;;;;;;9.88;2.58;;;18.20;99.90;;;;;;5066076;28;20094;-57
2022/06/30 09:48:55;;;;;;;5.07;2.53;;;18.20;99.90;;;;;;5048882;28;20618;-58
2022/06/30 09:51:21;;;;;;;7.60;2.60;;;18.30;99.90;;;;;;5056690;28;20404;-58
2022/06/30 09:54:07;;;;;;;5.25;2.72;;;18.30;99.90;;;;;;5068254;28;20029;-58
2022/06/30 09:56:32;;;;;;;5.68;2.40;;;18.20;99.90;;;;;;5063022;28;20055;-58
2022/06/30 09:58:58;;;;;;;5.25;2.30;;;18.30;99.90;;;;;;5052718;28;20532;-56
2022/06/30 10:01:24;;;;;;;6.40;2.50;;;18.20;99.90;;;;;;5052373;28;20040;-56
2022/06/30 10:03:59;;;;;;;4.47;2.20;;;18.20;99.90;;;;;;5052530;28;20525;-56
2022/06/30 10:06:25;;;;;;;7.10;2.30;;;18.10;99.90;;;;;;5057099;28;20084;-58
2022/06/30 10:08:55;;;;;;;6.10;2.13;;;18.10;99.90;;;;;;5051478;28;20487;-57
2022/06/30 10:11:21;;;;;;;5.88;2.05;;;18.00;99.90;;;;;;5052959;28;20115;-58
2022/06/30 10:13:48;;;;;;;5.75;2.65;;;17.90;99.90;;;;;;5051724;28;20271;-58
2022/06/30 10:16:16;;;;;;;5.30;2.67;;;17.90;99.90;;;;;;5047529;28;20024;-58
2022/06/30 10:18:45;;;;;;;8.35;2.13;;;18.10;99.90;;;;;;5041826;28;20494;-59
2022/06/30 10:21:10;;;;;;;4.78;2.28;;;18.10;99.90;;;;;;5050909;28;20052;-58
2022/06/30 10:23:37;;;;;;;8.27;2.60;;;18.10;99.90;;;;;;5053966;28;20139;-58
2022/06/30 10:26:04;;;;;;;4.78;1.92;;;18.00;99.90;;;;;;5054522;28;20103;-58
2022/06/30 10:28:30;;;;;;;4.18;1.80;;;18.10;99.90;;;;;;5059465;28;20036;-58
2022/06/30 10:31:17;;;;;;;5.10;2.15;;;17.90;99.90;;;;;;5056393;28;20111;-58
2022/06/30 10:34:08;;;;;;;6.75;2.00;;;17.80;99.90;;;;;;5046252;28;20017;-57
2022/06/30 10:36:43;;;;;;;3.63;2.05;;;18.20;99.90;;;;;;5048384;28;20497;-57
2022/06/30 10:39:37;;;;;;;4.53;2.35;;;18.30;99.90;;;;;;5055892;28;20020;-58
2022/06/30 10:42:02;;;;;;;5.35;2.95;;;18.40;99.90;;;;;;5053528;28;20032;-58
2022/06/30 10:44:29;;;;;;;6.25;3.47;;;18.60;99.90;;;;;;5060225;28;20032;-58
2022/06/30 10:46:57;;;;;;;9.05;5.00;;;18.80;99.90;;;;;;5052891;28;20027;-57
2022/06/30 10:49:25;;;;;;;9.48;5.50;;;19.10;99.90;;;;;;5057213;28;20063;-59
2022/06/30 10:51:55;;;;;;;11.48;5.45;;;18.90;99.90;;;;;;5072825;28;20436;-58
2022/06/30 10:54:29;;;;;;;11.57;6.00;;;18.70;99.90;;;;;;5067105;28;20495;-59
2022/06/30 10:56:57;;;;;;;9.02;5.65;;;18.70;99.90;;;;;;5064942;28;20036;-59
2022/06/30 10:59:34;;;;;;;7.20;5.60;;;18.70;99.90;;;;;;5052336;28;20021;-58
2022/06/30 11:02:15;;;;;;;13.18;6.10;;;18.70;99.90;;;;;;5058404;28;20525;-59
2022/06/30 11:04:49;;;;;;;10.88;6.03;;;18.80;99.90;;;;;;5055492;28;20525;-59
2022/06/30 11:07:25;;;;;;;10.48;5.75;;;18.70;99.90;;;;;;5058791;28;20340;-59
2022/06/30 11:09:51;;;;;;;9.77;5.65;;;19.00;99.90;;;;;;5061374;28;20024;-59
2022/06/30 11:12:19;;;;;;;9.00;5.05;;;19.40;99.90;;;;;;5063062;28;20059;-59
2022/06/30 11:14:50;;;;;;;9.30;5.43;;;19.80;99.90;;;;;;5059566;28;20033;-59
2022/06/30 11:17:18;;;;;;;6.85;4.70;;;19.90;99.90;;;;;;5061835;28;20036;-60
2022/06/30 11:19:44;;;;;;;7.57;4.78;;;19.70;99.90;;;;;;5052071;28;20048;-58
2022/06/30 11:22:15;;;;;;;8.55;4.18;;;19.40;99.90;;;;;;5067443;28;20032;-59
2022/06/30 11:24:43;;;;;;;10.05;4.00;;;19.30;99.90;;;;;;5054027;28;21685;-58
2022/06/30 11:27:20;;;;;;;10.65;4.15;;;19.50;99.90;;;;;;5044789;28;20054;-59
2022/06/30 11:29:46;;;;;;;7.47;3.70;;;19.50;99.90;;;;;;5045522;28;20036;-58
2022/06/30 11:32:12;;;;;;;7.45;3.10;;;19.60;99.90;;;;;;5031947;28;20045;-58
2022/06/30 11:34:40;;;;;;;7.65;3.60;;;19.40;99.90;;;;;;5030484;28;20032;-59
2022/06/30 11:37:09;;;;;;;7.68;3.30;;;19.30;99.90;;;;;;5027960;28;20356;-60
2022/06/30 11:39:35;;;;;;;6.05;3.50;;;19.20;99.90;;;;;;5037910;28;20229;-58
2022/06/30 11:42:06;;;;;;;6.82;3.50;;;19.10;99.90;;;;;;5031163;28;20479;-57
2022/06/30 11:44:42;;;;;;;9.18;4.53;;;19.00;99.90;;;;;;5035118;28;20124;-58
2022/06/30 11:47:10;;;;;;;7.05;3.22;;;18.80;99.90;;;;;;5045167;28;20493;-59
2022/06/30 11:49:41;;;;;;;8.65;3.88;;;18.70;99.90;;;;;;5035941;28;20033;-58
2022/06/30 11:52:18;;;;;;;6.10;3.38;;;18.90;99.90;;;;;;5043888;28;20028;-60
2022/06/30 11:55:01;;;;;;;8.35;3.80;;;18.70;99.90;;;;;;5043846;28;20025;-57
2022/06/30 11:57:32;;;;;;;5.30;3.42;;;18.30;99.90;;;;;;5046390;28;20493;-58
2022/06/30 12:00:02;;;;;;;7.40;3.75;;;18.30;99.90;;;;;;5032161;28;20106;-58
2022/06/30 12:02:30;;;;;;;6.32;3.20;;;18.30;99.90;;;;;;5039992;28;20039;-58
2022/06/30 12:05:00;;;;;;;7.82;3.38;;;18.30;99.90;;;;;;5037685;28;21295;-58
2022/06/30 12:07:27;;;;;;;7.32;3.55;;;18.20;99.90;;;;;;5038097;28;20560;-57
2022/06/30 12:09:54;;;;;;;6.38;3.15;;;18.40;99.90;;;;;;5038699;28;20042;-58
2022/06/30 12:12:29;;;;;;;7.03;3.10;;;18.30;99.90;;;;;;5036525;28;20066;-59
2022/06/30 12:14:57;;;;;;;6.63;3.00;;;18.30;99.90;;;;;;5038053;28;20637;-58
2022/06/30 12:17:23;;;;;;;6.07;2.83;;;18.50;99.90;;;;;;5037880;28;20117;-57
2022/06/30 12:19:51;;;;;;;5.18;2.90;;;18.60;99.90;;;;;;5040496;28;20106;-58
2022/06/30 12:22:18;;;;;;;7.22;3.00;;;18.60;99.90;;;;;;5034618;28;20068;-58
2022/06/30 12:24:46;;;;;;;6.95;2.75;;;18.90;99.90;;;;;;5045285;28;20497;-58
2022/06/30 12:27:25;;;;;;;3.80;2.78;;;18.70;99.90;;;;;;5039666;28;20040;-58
2022/06/30 12:29:58;;;;;;;8.38;3.20;;;18.20;99.90;;;;;;5043302;28;20024;-58
2022/06/30 12:32:23;;;;;;;6.13;3.72;;;18.10;99.90;;;;;;5040490;28;20037;-58
2022/06/30 12:34:56;;;;;;;8.43;3.38;;;18.20;99.90;;;;;;5044038;28;20039;-57
2022/06/30 12:37:34;;;;;;;6.80;3.72;;;18.20;99.90;;;;;;5047070;28;20036;-57
2022/06/30 12:40:06;;;;;;;8.88;3.70;;;18.20;99.90;;;;;;5048796;28;21027;-56
2022/06/30 12:42:40;;;;;;;8.23;3.90;;;18.20;99.90;;;;;;5048102;28;20036;-58
2022/06/30 12:45:26;;;;;;;6.53;3.90;;;18.10;99.90;;;;;;5053031;28;20032;-58
2022/06/30 12:47:52;;;;;;;8.18;3.90;;;18.00;99.90;;;;;;5054572;28;20025;-57
2022/06/30 12:50:21;;;;;;;6.93;4.55;;;17.70;99.90;;;;;;5057282;28;20039;-56
2022/06/30 12:52:46;;;;;;;10.50;5.72;;;17.40;99.90;;;;;;5057098;28;20139;-57
2022/06/30 12:55:12;;;;;;;5.88;5.10;;;17.20;99.90;;;;;;5060291;28;20518;-58
2022/06/30 12:57:38;;;;;;;8.85;5.38;;;17.10;99.90;;;;;;5058741;28;20054;-58
2022/06/30 13:00:04;;;;;;;10.50;5.90;;;16.90;99.90;;;;;;5062141;28;20389;-58
2022/06/30 13:02:39;;;;;;;8.57;5.03;;;17.10;99.90;;;;;;5056332;28;20420;-57
2022/06/30 13:05:11;;;;;;;10.48;4.80;;;17.20;99.90;;;;;;5060463;28;20024;-56
2022/06/30 13:07:37;;;;;;;10.88;5.22;;;17.30;99.90;;;;;;5063233;28;20389;-57
2022/06/30 13:10:04;;;;;;;9.00;4.80;;;17.30;99.90;;;;;;5060836;28;20078;-57
2022/06/30 13:12:29;;;;;;;8.23;3.20;;;17.20;99.90;;;;;;5060321;28;20104;-57
2022/06/30 13:14:55;;;;;;;8.02;3.50;;;17.10;99.90;;;;;;5066025;28;20112;-59
2022/06/30 13:17:21;;;;;;;8.32;2.70;;;17.10;99.90;;;;;;5067603;28;20043;-59
2022/06/30 13:19:47;;;;;;;7.93;2.78;;;16.80;99.90;;;;;;5073441;28;20034;-59
2022/06/30 13:22:13;;;;;;;10.25;3.58;;;16.50;99.90;;;;;;5071655;28;20457;-58
2022/06/30 13:24:39;;;;;;;11.32;3.47;;;16.20;99.90;;;;;;5072786;28;20032;-58
2022/06/30 13:27:05;;;;;;;13.20;3.88;;;16.10;99.90;;;;;;5069740;28;20045;-61
2022/06/30 13:29:35;;;;;;;11.60;4.68;;;15.90;99.90;;;;;;5070396;28;20051;-56
2022/06/30 13:32:01;;;;;;;10.55;4.95;;;15.60;99.90;;;;;;5060526;28;20110;-56
2022/06/30 13:34:28;;;;;;;11.95;5.60;;;15.30;99.90;;;;;;5072584;28;20102;-56
2022/06/30 13:36:54;;;;;;;7.00;4.40;;;15.40;99.90;;;;;;5070024;28;20027;-56
2022/06/30 13:39:19;;;;;;;10.02;4.43;;;15.30;99.90;;;;;;5069720;28;20024;-55
2022/06/30 13:41:52;;;;;;;8.13;4.70;;;15.30;99.90;;;;;;5053795;28;20056;-55
2022/06/30 13:44:18;;;;;;;12.85;5.45;;;15.20;99.90;;;;;;5051863;28;20127;-57
2022/06/30 13:46:47;;;;;;;11.27;5.75;;;15.20;99.90;;;;;;5080846;28;20113;-56
2022/06/30 13:49:13;;;;;;;8.73;5.65;;;15.20;99.90;;;;;;5055126;28;20043;-57
2022/06/30 13:51:39;;;;;;;9.43;5.00;;;15.30;99.90;;;;;;5053955;28;20425;-55
2022/06/30 13:54:05;;;;;;;6.60;4.40;;;15.20;99.90;;;;;;5052284;28;20056;-56
2022/06/30 13:56:31;;;;;;;8.10;3.63;;;15.10;99.90;;;;;;5054268;28;20079;-55
2022/06/30 13:58:57;;;;;;;5.50;2.28;;;14.80;99.90;;;;;;5054397;28;20386;-57
2022/06/30 14:01:23;;;;;;;4.25;2.05;;;14.40;99.90;;;;;;5054117;28;20111;-58
2022/06/30 14:03:49;;;;;;;3.65;2.00;;;14.20;99.90;;;;;;5053738;28;20524;-59
2022/06/30 14:06:15;;;;;;;5.18;2.38;;;14.20;99.90;;;;;;5052558;28;20132;-63
2022/06/30 14:08:41;;;;;;;6.75;3.00;;;14.30;99.90;;;;;;5053955;28;20017;-58
2022/06/30 14:11:07;;;;;;;3.47;2.20;;;14.30;99.90;;;;;;5054039;28;20033;-56
2022/06/30 14:13:33;;;;;;;4.55;2.10;;;14.30;99.90;;;;;;5052621;28;20033;-60
2022/06/30 14:15:58;;;;;;;4.45;1.80;;;14.20;99.90;;;;;;5053528;28;20338;-58
2022/06/30 14:18:25;;;;;;;3.28;1.40;;;14.10;99.90;;;;;;5052221;28;20108;-57
2022/06/30 14:20:51;;;;;;;4.53;1.50;;;14.00;99.90;;;;;;5053944;28;20486;-55
2022/06/30 14:23:17;;;;;;;3.22;1.80;;;14.00;99.90;;;;;;5051964;28;20114;-56
2022/06/30 14:25:42;;;;;;;5.55;2.30;;;13.90;99.90;;;;;;5052219;28;20025;-58
2022/06/30 14:28:09;;;;;;;3.10;2.20;;;14.10;99.90;;;;;;5053324;28;20036;-58
2022/06/30 14:30:35;;;;;;;3.13;1.67;;;14.10;99.90;;;;;;5053699;28;20414;-56
2022/06/30 14:33:02;;;;;;;4.72;1.83;;;14.10;99.90;;;;;;5052212;28;20397;-55
2022/06/30 14:35:28;;;;;;;4.88;1.90;;;14.20;99.90;;;;;;5053789;28;20661;-54
2022/06/30 14:37:54;;;;;;;6.90;2.55;;;14.30;99.90;;;;;;5054067;28;20055;-55
2022/06/30 14:40:20;;;;;;;4.10;3.10;;;14.40;99.90;;;;;;5053505;28;20032;-55
2022/06/30 14:42:48;;;;;;;5.63;3.13;;;14.50;99.90;;;;;;5053300;28;20033;-55
2022/06/30 14:45:24;;;;;;;4.30;2.97;;;14.60;99.90;;;;;;5053124;28;20040;-55
2022/06/30 14:47:52;;;;;;;7.35;5.40;;;14.70;99.90;;;;;;5053197;28;20512;-55
2022/06/30 14:50:18;;;;;;;5.60;4.00;;;14.70;99.90;;;;;;5052917;28;20025;-56
2022/06/30 14:52:46;;;;;;;4.60;2.75;;;14.90;99.90;;;;;;5053009;28;20111;-55
2022/06/30 14:55:13;;;;;;;3.03;1.60;;;14.90;99.90;;;;;;5052694;28;20115;-56
2022/06/30 14:57:42;;;;;;;2.83;1.30;;;14.70;99.90;;;;;;5053374;28;20032;-56
2022/06/30 15:00:09;;;;;;;4.18;1.80;;;14.70;99.90;;;;;;5052948;28;20037;-61
2022/06/30 15:02:36;;;;;;;3.75;1.45;;;14.80;99.90;;;;;;5052628;28;20414;-55
2022/06/30 15:05:06;;;;;;;3.05;1.40;;;14.80;99.90;;;;;;5053143;28;20025;-55
2022/06/30 15:07:31;;;;;;;5.15;1.90;;;14.60;99.90;;;;;;5053099;28;20022;-55
2022/06/30 15:09:57;;;;;;;3.65;1.60;;;14.50;99.90;;;;;;5053175;28;20036;-54
2022/06/30 15:12:23;;;;;;;1.88;1.58;;;14.30;99.90;;;;;;5052513;28;20025;-54
2022/06/30 15:14:48;;;;;;;3.60;1.90;;;14.30;99.90;;;;;;5051428;28;20031;-55
2022/06/30 15:17:16;;;;;;;3.92;2.13;;;14.40;99.90;;;;;;5052279;28;20051;-56
2022/06/30 15:19:41;;;;;;;6.32;2.25;;;14.30;99.90;;;;;;5053110;28;20029;-54
2022/06/30 15:24:52;;;;;;;4.07;2.45;;;14.30;99.90;;;;;;5051876;28;20036;-55
2022/06/30 15:27:18;;;;;;;3.53;2.08;;;14.30;99.90;;;;;;5051786;28;20534;-55
2022/06/30 15:29:47;;;;;;;4.32;2.50;;;14.30;99.90;;;;;;5052486;28;20436;-54
2022/06/30 15:32:17;;;;;;;5.95;2.67;;;14.40;99.90;;;;;;5051860;28;20056;-54
2022/06/30 15:34:47;;;;;;;2.88;2.15;;;14.50;99.90;;;;;;5052221;28;20028;-55
2022/06/30 15:37:14;;;;;;;4.95;2.90;;;14.80;99.90;;;;;;5050945;28;20025;-55
2022/06/30 15:39:40;;;;;;;4.85;2.40;;;14.90;99.90;;;;;;5052222;28;20142;-54
2022/06/30 15:42:11;;;;;;;3.83;2.25;;;15.20;99.90;;;;;;5051748;28;20539;-54
2022/06/30 15:44:39;;;;;;;3.47;1.95;;;15.40;99.90;;;;;;5051769;28;20056;-55
2022/06/30 15:47:05;;;;;;;3.25;1.80;;;15.50;99.90;;;;;;5052272;28;20029;-55
2022/06/30 15:49:31;;;;;;;3.40;1.90;;;15.40;99.90;;;;;;5052206;28;20084;-54
2022/06/30 15:52:01;;;;;;;1.85;1.73;;;15.40;99.90;;;;;;5051653;28;20064;-52
2022/06/30 15:54:28;;;;;;;2.53;1.80;;;15.20;99.90;;;;;;5051475;28;20112;-52
2022/06/30 15:56:53;;;;;;;4.30;2.10;;;15.20;99.90;;;;;;5052013;28;20029;-53
2022/06/30 15:59:19;;;;;;;3.15;1.70;;;15.30;99.90;;;;;;5051886;28;20389;-53
2022/06/30 16:01:45;;;;;;;4.30;1.65;;;15.40;99.90;;;;;;5051910;28;20028;-53
2022/06/30 16:04:10;;;;;;;3.83;2.40;;;15.20;99.90;;;;;;5050055;28;20018;-52
2022/06/30 16:06:36;;;;;;;2.33;2.13;;;15.20;99.90;;;;;;5051295;28;20032;-51
2022/06/30 16:09:02;;;;;;;2.78;1.88;;;15.00;99.90;;;;;;5050000;28;20029;-51
2022/06/30 16:11:27;;;;;;;3.35;2.00;;;15.10;99.90;;;;;;5051275;28;20021;-51
2022/06/30 16:13:53;;;;;;;3.85;1.90;;;15.20;99.90;;;;;;5051466;28;20107;-50
2022/06/30 16:16:19;;;;;;;3.20;2.22;;;15.00;99.90;;;;;;5051436;28;20022;-51
2022/06/30 16:18:45;;;;;;;4.72;2.35;;;14.90;99.90;;;;;;5051793;28;20390;-52
2022/06/30 16:21:10;;;;;;;3.42;2.00;;;14.80;99.90;;;;;;5051549;28;20028;-51
2022/06/30 16:23:36;;;;;;;3.65;2.00;;;14.80;99.90;;;;;;5051654;28;20539;-52
2022/06/30 16:26:02;;;;;;;5.07;2.13;;;14.90;99.90;;;;;;5051246;28;20556;-52
2022/06/30 16:28:29;;;;;;;2.35;1.88;;;14.80;99.90;;;;;;5051522;28;20033;-52
2022/06/30 16:30:55;;;;;;;3.33;1.88;;;14.80;99.90;;;;;;5051327;28;20478;-53
2022/06/30 16:33:20;;;;;;;4.22;1.60;;;14.70;99.90;;;;;;5050969;28;20096;-53
2022/06/30 16:35:46;;;;;;;1.80;1.60;;;14.50;99.90;;;;;;5051229;28;20031;-52
2022/06/30 16:38:12;;;;;;;2.17;1.90;;;14.40;99.90;;;;;;5051474;28;20252;-53
2022/06/30 16:40:39;;;;;;;3.20;1.67;;;14.50;99.90;;;;;;5051444;28;20486;-54
2022/06/30 16:43:07;;;;;;;2.95;1.65;;;14.40;99.90;;;;;;5051083;28;20115;-54
2022/06/30 16:45:33;;;;;;;4.90;2.25;;;14.40;99.90;;;;;;5051560;28;20504;-55
2022/06/30 16:47:59;;;;;;;2.20;1.88;;;14.40;99.90;;;;;;5050962;28;20049;-55
2022/06/30 16:50:24;;;;;;;4.22;2.00;;;14.40;99.90;;;;;;5054355;28;20021;-55
2022/06/30 16:52:50;;;;;;;3.33;1.70;;;14.30;99.90;;;;;;5055539;28;20587;-56
2022/06/30 16:55:15;;;;;;;3.35;2.10;;;14.30;99.90;;;;;;5055245;28;20025;-56
2022/06/30 16:57:43;;;;;;;4.07;1.90;;;14.20;99.90;;;;;;5055286;28;20025;-55
2022/06/30 17:00:10;;;;;;;2.47;1.73;;;14.20;99.90;;;;;;5055286;28;20037;-58
2022/06/30 17:02:37;;;;;;;3.58;2.00;;;14.20;99.90;;;;;;5053764;28;20150;-58
2022/06/30 17:05:03;;;;;;;3.90;1.92;;;14.20;99.90;;;;;;5054759;28;20029;-58
2022/06/30 17:07:30;;;;;;;4.38;2.15;;;14.20;99.90;;;;;;5054774;28;20025;-57
2022/06/30 17:09:58;;;;;;;3.10;2.40;;;14.20;99.90;;;;;;5054290;28;20024;-58
2022/06/30 17:12:28;;;;;;;4.63;2.20;;;14.30;99.90;;;;;;5053562;28;20108;-58
2022/06/30 17:14:53;;;;;;;4.43;2.20;;;14.40;99.90;;;;;;5054789;28;20036;-58
2022/06/30 17:17:19;;;;;;;5.10;2.65;;;14.40;99.90;;;;;;5054553;28;20025;-58
2022/06/30 17:19:45;;;;;;;3.55;2.13;;;14.40;99.90;;;;;;5054681;28;20294;-57
2022/06/30 17:22:11;;;;;;;5.03;2.20;;;14.40;99.90;;;;;;5054380;28;20044;-57
2022/06/30 17:24:36;;;;;;;4.60;3.25;;;14.40;99.90;;;;;;5054379;28;20499;-57
2022/06/30 17:27:02;;;;;;;4.53;2.30;;;14.50;99.90;;;;;;5054762;28;20017;-57
2022/06/30 17:29:28;;;;;;;7.55;2.50;;;14.50;99.90;;;;;;5054597;28;20492;-56
2022/06/30 17:31:54;;;;;;;4.22;2.33;;;14.50;99.90;;;;;;5054166;28;20103;-56
2022/06/30 17:34:20;;;;;;;3.15;2.40;;;14.40;99.90;;;;;;5052786;28;20025;-56
2022/06/30 17:36:46;;;;;;;6.80;2.67;;;14.40;99.90;;;;;;5054019;28;20021;-56
2022/06/30 17:39:12;;;;;;;5.32;3.00;;;14.40;99.90;;;;;;5054091;28;20037;-56
2022/06/30 17:41:38;;;;;;;5.68;2.78;;;14.40;99.90;;;;;;5054144;28;20033;-57
2022/06/30 17:44:04;;;;;;;5.47;3.00;;;14.50;99.90;;;;;;5054219;28;20109;-57
2022/06/30 17:46:30;;;;;;;3.35;2.78;;;14.50;99.90;;;;;;5054088;28;20036;-57
2022/06/30 17:48:55;;;;;;;7.00;3.55;;;14.50;99.90;;;;;;5054187;28;20036;-56
2022/06/30 17:51:25;;;;;;;5.68;3.20;;;14.50;99.90;;;;;;5053913;28;20067;-57
2022/06/30 17:53:50;;;;;;;4.65;2.83;;;14.40;99.90;;;;;;5053680;28;20108;-57
2022/06/30 17:56:18;;;;;;;4.47;2.95;;;14.40;99.90;;;;;;5054058;28;20108;-58
2022/06/30 17:58:44;;;;;;;6.95;3.65;;;14.40;99.90;;;;;;5054130;28;20423;-58
2022/06/30 18:01:09;;;;;;;4.93;3.72;;;14.50;99.90;;;;;;5053481;28;20029;-57
2022/06/30 18:03:35;;;;;;;5.10;3.83;;;14.60;99.90;;;;;;5053697;28;20028;-58
2022/06/30 18:06:01;;;;;;;6.60;4.38;;;14.50;99.90;;;;;;5053903;28;20059;-57
2022/06/30 18:11:15;;;;;;;6.72;5.15;;;14.50;99.90;;;;;;5053812;28;20068;-57
2022/06/30 18:13:45;;;;;;;8.63;5.80;;;14.40;99.90;;;;;;5053673;28;20040;-56
2022/06/30 18:16:11;;;;;;;7.38;6.20;;;14.40;99.90;;;;;;5053587;28;20025;-57
2022/06/30 18:18:38;;;;;;;8.35;6.05;;;14.40;99.90;;;;;;5053285;28;20037;-56
2022/06/30 18:21:05;;;;;;;8.65;7.03;;;14.50;99.90;;;;;;5053690;28;20071;-57
2022/06/30 18:23:32;;;;;;;7.35;6.13;;;14.60;99.90;;;;;;5053411;28;20063;-57
2022/06/30 18:26:02;;;;;;;9.73;6.55;;;14.60;99.90;;;;;;5053338;28;20060;-56
2022/06/30 18:28:31;;;;;;;10.40;6.65;;;14.60;99.90;;;;;;5053470;28;20054;-57
2022/06/30 18:30:57;;;;;;;6.75;5.80;;;14.70;99.90;;;;;;5053242;28;20041;-55
2022/06/30 18:33:23;;;;;;;9.95;6.13;;;14.60;99.90;;;;;;5051664;28;20537;-55
2022/06/30 18:35:50;;;;;;;10.32;6.70;;;14.60;99.90;;;;;;5053229;28;20100;-53
2022/06/30 18:38:16;;;;;;;10.65;7.25;;;14.50;99.90;;;;;;5053334;28;20428;-55
2022/06/30 18:40:42;;;;;;;10.63;6.93;;;14.60;99.90;;;;;;5052625;28;20158;-55
2022/06/30 18:43:07;;;;;;;9.63;7.03;;;14.60;99.90;;;;;;5053239;28;20028;-55
2022/06/30 18:45:33;;;;;;;9.43;7.30;;;14.60;99.90;;;;;;5052296;28;20126;-56
2022/06/30 18:48:01;;;;;;;8.85;6.82;;;14.50;99.90;;;;;;5052958;28;20025;-56
2022/06/30 18:50:27;;;;;;;9.35;7.05;;;14.40;99.90;;;;;;5051706;28;20082;-56
2022/06/30 18:52:53;;;;;;;10.82;7.40;;;14.40;99.90;;;;;;5052892;28;20049;-58
2022/06/30 18:55:19;;;;;;;8.23;6.47;;;14.40;99.90;;;;;;5052769;28;20117;-58
2022/06/30 18:57:45;;;;;;;8.98;7.82;;;14.40;99.90;;;;;;5053349;28;20065;-56
2022/06/30 19:00:13;;;;;;;11.88;7.82;;;14.50;99.90;;;;;;5052410;28;20067;-57
2022/06/30 19:02:38;;;;;;;7.80;6.40;;;14.50;99.90;;;;;;5051667;28;20501;-56
2022/06/30 19:05:04;;;;;;;7.55;6.43;;;14.50;99.90;;;;;;5052841;28;20025;-57
2022/06/30 19:07:30;;;;;;;9.85;6.22;;;14.50;99.90;;;;;;5053233;28;20025;-58
2022/06/30 19:09:56;;;;;;;9.65;6.80;;;14.50;99.90;;;;;;5053139;28;20086;-57
2022/06/30 19:12:21;;;;;;;9.48;6.25;;;14.40;99.90;;;;;;5052170;28;20032;-57
2022/06/30 19:14:47;;;;;;;11.32;8.07;;;14.40;99.90;;;;;;5053101;28;20021;-57
2022/06/30 19:17:12;;;;;;;10.95;7.13;;;14.40;99.90;;;;;;5052885;28;20033;-57
2022/06/30 19:19:38;;;;;;;9.27;6.13;;;14.30;99.90;;;;;;5052938;28;20386;-57
2022/06/30 19:22:04;;;;;;;11.63;6.82;;;14.30;99.90;;;;;;5051630;28;20588;-56
2022/06/30 19:24:30;;;;;;;13.50;6.65;;;14.30;99.90;;;;;;5052199;28;20096;-56
2022/06/30 19:26:57;;;;;;;9.10;5.97;;;14.30;99.90;;;;;;5052436;28;20028;-56